ウルムチ の空港の天気 - METARとTAF

ウルムチ地窩堡国際空港 ( ZWWW / URC ) - 中華人民共和国 新疆ウイグル自治区ウルムチ市
飛行場実況気象(Metar)
観測時間05/25 18:00 CST (05/25 10:00 UTC)
風向・風速北西 4m/s
視程10km以上
天気現象
なし
気温32℃
湿度18%
気圧1009hPa
METARZWWW 251000Z 32004MPS CAVOK 32/05 Q1009 NOSIG
過去の天気等 Google飛行場航空写真 Wunderground天気予報

過去48時間のMETAR

飛行場予報(TAF)
発表時間: 5/25 11:07 CST (5/25 03:07 UTC)
予報対象時間: 25日14時 CST ~ 26日14時 CST
風向・風速北 4m/s
視程10km以上
なし
25日21時 CST ~ 25日22時 CST に徐々に
風向・風速南 4m/s
26日10時 CST ~ 26日11時 CST に徐々に
風向・風速北 4m/s
TAF ZWWW 250307Z 2506/2606 36004MPS CAVOK TX34/2509Z TN23/2523Z
BECMG 2513/2514 18004MPS
BECMG 2602/2603 36004MPS